sensor_id;sensor_type;location;lat;lon;timestamp;P1;durP1;ratioP1;P2;durP2;ratioP2
12348;SDS011;5974;42.710;27.258;2023-04-15T00:00:35;15.07;;;5.33;;
12348;SDS011;5974;42.710;27.258;2023-04-15T00:03:02;9.03;;;5.20;;
12348;SDS011;5974;42.710;27.258;2023-04-15T00:05:30;13.27;;;4.77;;
12348;SDS011;5974;42.710;27.258;2023-04-15T00:07:59;13.97;;;4.87;;
12348;SDS011;5974;42.710;27.258;2023-04-15T00:10:26;16.60;;;7.33;;
12348;SDS011;5974;42.710;27.258;2023-04-15T00:12:53;22.90;;;7.33;;
12348;SDS011;5974;42.710;27.258;2023-04-15T00:15:20;17.03;;;6.53;;
12348;SDS011;5974;42.710;27.258;2023-04-15T00:17:48;11.97;;;5.27;;
12348;SDS011;5974;42.710;27.258;2023-04-15T00:20:16;13.53;;;6.30;;
12348;SDS011;5974;42.710;27.258;2023-04-15T00:22:43;15.27;;;5.87;;
12348;SDS011;5974;42.710;27.258;2023-04-15T00:25:11;13.60;;;5.90;;
12348;SDS011;5974;42.710;27.258;2023-04-15T00:27:39;12.20;;;5.60;;
12348;SDS011;5974;42.710;27.258;2023-04-15T00:30:06;16.80;;;6.00;;
12348;SDS011;5974;42.710;27.258;2023-04-15T00:32:33;16.80;;;5.47;;
12348;SDS011;5974;42.710;27.258;2023-04-15T00:35:00;11.23;;;5.40;;
12348;SDS011;5974;42.710;27.258;2023-04-15T00:37:28;11.97;;;5.40;;
12348;SDS011;5974;42.710;27.258;2023-04-15T00:39:56;11.50;;;5.50;;
12348;SDS011;5974;42.710;27.258;2023-04-15T00:42:24;11.70;;;5.20;;
12348;SDS011;5974;42.710;27.258;2023-04-15T00:44:51;13.10;;;5.70;;
12348;SDS011;5974;42.710;27.258;2023-04-15T00:47:18;12.53;;;5.47;;
12348;SDS011;5974;42.710;27.258;2023-04-15T00:49:47;19.57;;;7.87;;
12348;SDS011;5974;42.710;27.258;2023-04-15T00:52:13;15.20;;;7.23;;
12348;SDS011;5974;42.710;27.258;2023-04-15T00:54:40;13.20;;;5.73;;
12348;SDS011;5974;42.710;27.258;2023-04-15T00:57:07;15.17;;;7.60;;
12348;SDS011;5974;42.710;27.258;2023-04-15T00:59:36;15.83;;;6.13;;
12348;SDS011;5974;42.710;27.258;2023-04-15T01:02:03;13.63;;;5.50;;
12348;SDS011;5974;42.710;27.258;2023-04-15T01:04:31;13.50;;;5.77;;
12348;SDS011;5974;42.710;27.258;2023-04-15T01:06:58;15.37;;;6.33;;
12348;SDS011;5974;42.710;27.258;2023-04-15T01:09:25;15.60;;;5.63;;
12348;SDS011;5974;42.710;27.258;2023-04-15T01:11:52;14.87;;;5.77;;
12348;SDS011;5974;42.710;27.258;2023-04-15T01:14:19;12.93;;;5.23;;
12348;SDS011;5974;42.710;27.258;2023-04-15T01:16:48;11.70;;;5.03;;
12348;SDS011;5974;42.710;27.258;2023-04-15T01:19:15;16.87;;;6.30;;
12348;SDS011;5974;42.710;27.258;2023-04-15T01:21:42;14.27;;;4.70;;
12348;SDS011;5974;42.710;27.258;2023-04-15T01:24:10;17.10;;;5.53;;
12348;SDS011;5974;42.710;27.258;2023-04-15T01:26:40;12.07;;;4.50;;
12348;SDS011;5974;42.710;27.258;2023-04-15T01:29:07;12.53;;;4.47;;
12348;SDS011;5974;42.710;27.258;2023-04-15T01:31:34;17.77;;;5.20;;
12348;SDS011;5974;42.710;27.258;2023-04-15T01:34:01;10.33;;;4.77;;
12348;SDS011;5974;42.710;27.258;2023-04-15T01:36:28;15.23;;;4.63;;
12348;SDS011;5974;42.710;27.258;2023-04-15T01:38:55;11.93;;;4.47;;
12348;SDS011;5974;42.710;27.258;2023-04-15T01:41:24;9.80;;;4.23;;
12348;SDS011;5974;42.710;27.258;2023-04-15T01:43:52;10.77;;;4.60;;
12348;SDS011;5974;42.710;27.258;2023-04-15T01:46:19;12.77;;;4.77;;
12348;SDS011;5974;42.710;27.258;2023-04-15T01:48:46;11.70;;;4.50;;
12348;SDS011;5974;42.710;27.258;2023-04-15T01:51:13;10.50;;;4.20;;
12348;SDS011;5974;42.710;27.258;2023-04-15T01:53:40;17.23;;;4.30;;
12348;SDS011;5974;42.710;27.258;2023-04-15T01:56:07;11.17;;;4.30;;
12348;SDS011;5974;42.710;27.258;2023-04-15T01:58:34;18.37;;;5.83;;
12348;SDS011;5974;42.710;27.258;2023-04-15T02:01:02;13.20;;;4.50;;
12348;SDS011;5974;42.710;27.258;2023-04-15T02:03:29;12.33;;;4.47;;
12348;SDS011;5974;42.710;27.258;2023-04-15T02:05:56;15.87;;;4.77;;
12348;SDS011;5974;42.710;27.258;2023-04-15T02:08:23;8.33;;;4.07;;
12348;SDS011;5974;42.710;27.258;2023-04-15T02:10:50;12.63;;;4.03;;
12348;SDS011;5974;42.710;27.258;2023-04-15T02:13:17;13.50;;;4.77;;
12348;SDS011;5974;42.710;27.258;2023-04-15T02:15:46;10.50;;;4.60;;
12348;SDS011;5974;42.710;27.258;2023-04-15T02:18:15;10.20;;;4.47;;
12348;SDS011;5974;42.710;27.258;2023-04-15T02:20:42;11.30;;;5.20;;
12348;SDS011;5974;42.710;27.258;2023-04-15T02:23:09;14.07;;;5.27;;
12348;SDS011;5974;42.710;27.258;2023-04-15T02:25:36;16.17;;;4.97;;
12348;SDS011;5974;42.710;27.258;2023-04-15T02:28:04;13.63;;;5.20;;
12348;SDS011;5974;42.710;27.258;2023-04-15T02:30:31;14.80;;;4.87;;
12348;SDS011;5974;42.710;27.258;2023-04-15T02:32:58;13.67;;;5.23;;
12348;SDS011;5974;42.710;27.258;2023-04-15T02:35:27;17.70;;;4.90;;
12348;SDS011;5974;42.710;27.258;2023-04-15T02:37:54;12.13;;;4.93;;
12348;SDS011;5974;42.710;27.258;2023-04-15T02:40:21;11.00;;;4.47;;
12348;SDS011;5974;42.710;27.258;2023-04-15T02:42:48;15.97;;;4.93;;
12348;SDS011;5974;42.710;27.258;2023-04-15T02:45:15;10.77;;;4.67;;
12348;SDS011;5974;42.710;27.258;2023-04-15T02:47:43;9.27;;;4.40;;
12348;SDS011;5974;42.710;27.258;2023-04-15T02:50:11;12.23;;;4.53;;
12348;SDS011;5974;42.710;27.258;2023-04-15T02:55:08;11.63;;;5.10;;
12348;SDS011;5974;42.710;27.258;2023-04-15T02:57:35;17.07;;;4.87;;
12348;SDS011;5974;42.710;27.258;2023-04-15T03:00:03;11.90;;;4.87;;
12348;SDS011;5974;42.710;27.258;2023-04-15T03:02:33;14.33;;;4.90;;
12348;SDS011;5974;42.710;27.258;2023-04-15T03:05:01;13.80;;;4.93;;
12348;SDS011;5974;42.710;27.258;2023-04-15T03:07:28;12.57;;;4.77;;
12348;SDS011;5974;42.710;27.258;2023-04-15T03:09:56;11.30;;;4.77;;
12348;SDS011;5974;42.710;27.258;2023-04-15T03:12:23;12.30;;;4.67;;
12348;SDS011;5974;42.710;27.258;2023-04-15T03:14:50;12.63;;;4.77;;
12348;SDS011;5974;42.710;27.258;2023-04-15T03:17:17;12.67;;;4.47;;
12348;SDS011;5974;42.710;27.258;2023-04-15T03:19:43;23.70;;;5.20;;
12348;SDS011;5974;42.710;27.258;2023-04-15T03:22:10;8.27;;;5.10;;
12348;SDS011;5974;42.710;27.258;2023-04-15T03:24:37;10.27;;;5.10;;
12348;SDS011;5974;42.710;27.258;2023-04-15T03:27:06;14.07;;;4.77;;
12348;SDS011;5974;42.710;27.258;2023-04-15T03:29:33;16.27;;;4.80;;
12348;SDS011;5974;42.710;27.258;2023-04-15T03:32:00;13.60;;;4.50;;
12348;SDS011;5974;42.710;27.258;2023-04-15T03:34:27;14.27;;;5.27;;
12348;SDS011;5974;42.710;27.258;2023-04-15T03:36:54;13.63;;;4.83;;
12348;SDS011;5974;42.710;27.258;2023-04-15T03:39:21;14.33;;;4.97;;
12348;SDS011;5974;42.710;27.258;2023-04-15T03:41:48;8.77;;;4.30;;
12348;SDS011;5974;42.710;27.258;2023-04-15T03:44:16;13.00;;;4.67;;
12348;SDS011;5974;42.710;27.258;2023-04-15T03:46:43;15.83;;;5.17;;
12348;SDS011;5974;42.710;27.258;2023-04-15T03:49:12;16.10;;;4.93;;
12348;SDS011;5974;42.710;27.258;2023-04-15T03:51:40;12.87;;;4.80;;
12348;SDS011;5974;42.710;27.258;2023-04-15T03:54:07;9.67;;;4.43;;
12348;SDS011;5974;42.710;27.258;2023-04-15T03:56:34;11.90;;;4.80;;
12348;SDS011;5974;42.710;27.258;2023-04-15T03:59:01;14.97;;;5.33;;
12348;SDS011;5974;42.710;27.258;2023-04-15T04:01:29;17.10;;;5.50;;
12348;SDS011;5974;42.710;27.258;2023-04-15T04:03:56;17.00;;;6.10;;
12348;SDS011;5974;42.710;27.258;2023-04-15T04:06:23;13.13;;;6.47;;
12348;SDS011;5974;42.710;27.258;2023-04-15T04:08:50;14.70;;;6.63;;
12348;SDS011;5974;42.710;27.258;2023-04-15T04:11:17;25.20;;;8.53;;
12348;SDS011;5974;42.710;27.258;2023-04-15T04:13:44;19.87;;;7.00;;
12348;SDS011;5974;42.710;27.258;2023-04-15T04:16:11;16.57;;;6.60;;
12348;SDS011;5974;42.710;27.258;2023-04-15T04:18:39;18.77;;;6.70;;
12348;SDS011;5974;42.710;27.258;2023-04-15T04:21:06;16.37;;;7.10;;
12348;SDS011;5974;42.710;27.258;2023-04-15T04:23:33;17.33;;;6.97;;
12348;SDS011;5974;42.710;27.258;2023-04-15T04:26:00;15.27;;;6.83;;
12348;SDS011;5974;42.710;27.258;2023-04-15T04:28:27;15.47;;;6.67;;
12348;SDS011;5974;42.710;27.258;2023-04-15T04:30:54;15.30;;;7.43;;
12348;SDS011;5974;42.710;27.258;2023-04-15T04:33:21;14.83;;;6.97;;
12348;SDS011;5974;42.710;27.258;2023-04-15T04:35:49;17.70;;;6.87;;
12348;SDS011;5974;42.710;27.258;2023-04-15T04:38:16;18.53;;;6.73;;
12348;SDS011;5974;42.710;27.258;2023-04-15T04:40:43;18.30;;;7.47;;
12348;SDS011;5974;42.710;27.258;2023-04-15T04:43:11;18.23;;;7.27;;
12348;SDS011;5974;42.710;27.258;2023-04-15T04:45:38;21.47;;;7.17;;
12348;SDS011;5974;42.710;27.258;2023-04-15T04:48:06;22.67;;;7.67;;
12348;SDS011;5974;42.710;27.258;2023-04-15T04:50:34;19.60;;;8.50;;
12348;SDS011;5974;42.710;27.258;2023-04-15T04:53:03;19.13;;;7.93;;
12348;SDS011;5974;42.710;27.258;2023-04-15T04:55:30;17.23;;;8.57;;
12348;SDS011;5974;42.710;27.258;2023-04-15T04:57:57;18.90;;;8.67;;
12348;SDS011;5974;42.710;27.258;2023-04-15T05:00:24;16.57;;;8.33;;
12348;SDS011;5974;42.710;27.258;2023-04-15T05:02:50;21.60;;;8.87;;
12348;SDS011;5974;42.710;27.258;2023-04-15T05:05:17;18.53;;;8.97;;
12348;SDS011;5974;42.710;27.258;2023-04-15T05:07:44;19.87;;;8.83;;
12348;SDS011;5974;42.710;27.258;2023-04-15T05:10:12;14.53;;;6.90;;
12348;SDS011;5974;42.710;27.258;2023-04-15T05:12:41;14.30;;;7.03;;
12348;SDS011;5974;42.710;27.258;2023-04-15T05:15:08;16.40;;;7.30;;
12348;SDS011;5974;42.710;27.258;2023-04-15T05:17:36;16.87;;;7.70;;
12348;SDS011;5974;42.710;27.258;2023-04-15T05:20:03;17.30;;;7.73;;
12348;SDS011;5974;42.710;27.258;2023-04-15T05:22:30;17.47;;;8.30;;
12348;SDS011;5974;42.710;27.258;2023-04-15T05:24:57;18.17;;;8.00;;
12348;SDS011;5974;42.710;27.258;2023-04-15T05:27:25;17.03;;;8.47;;
12348;SDS011;5974;42.710;27.258;2023-04-15T05:29:52;17.10;;;8.07;;
12348;SDS011;5974;42.710;27.258;2023-04-15T05:32:20;17.33;;;8.57;;
12348;SDS011;5974;42.710;27.258;2023-04-15T05:34:47;20.00;;;8.10;;
12348;SDS011;5974;42.710;27.258;2023-04-15T05:37:14;14.63;;;7.77;;
12348;SDS011;5974;42.710;27.258;2023-04-15T05:39:41;19.03;;;9.40;;
12348;SDS011;5974;42.710;27.258;2023-04-15T05:42:08;14.83;;;7.60;;
12348;SDS011;5974;42.710;27.258;2023-04-15T05:44:36;16.23;;;7.93;;
12348;SDS011;5974;42.710;27.258;2023-04-15T05:47:03;16.10;;;7.50;;
12348;SDS011;5974;42.710;27.258;2023-04-15T05:49:32;17.23;;;8.07;;
12348;SDS011;5974;42.710;27.258;2023-04-15T05:51:58;16.23;;;7.03;;
12348;SDS011;5974;42.710;27.258;2023-04-15T05:54:25;14.93;;;7.60;;
12348;SDS011;5974;42.710;27.258;2023-04-15T05:56:53;15.83;;;7.93;;
12348;SDS011;5974;42.710;27.258;2023-04-15T05:59:20;19.43;;;9.10;;
12348;SDS011;5974;42.710;27.258;2023-04-15T06:01:48;15.53;;;9.70;;
12348;SDS011;5974;42.710;27.258;2023-04-15T06:04:16;43.47;;;28.87;;
12348;SDS011;5974;42.710;27.258;2023-04-15T06:06:43;15.40;;;9.60;;
12348;SDS011;5974;42.710;27.258;2023-04-15T06:09:10;17.63;;;10.10;;
12348;SDS011;5974;42.710;27.258;2023-04-15T06:11:37;18.97;;;10.30;;
12348;SDS011;5974;42.710;27.258;2023-04-15T06:14:05;17.90;;;10.40;;
12348;SDS011;5974;42.710;27.258;2023-04-15T06:16:32;24.37;;;14.50;;
12348;SDS011;5974;42.710;27.258;2023-04-15T06:19:02;17.50;;;14.33;;
12348;SDS011;5974;42.710;27.258;2023-04-15T06:21:29;27.23;;;17.70;;
12348;SDS011;5974;42.710;27.258;2023-04-15T06:23:57;21.83;;;16.50;;
12348;SDS011;5974;42.710;27.258;2023-04-15T06:26:25;20.60;;;14.20;;
12348;SDS011;5974;42.710;27.258;2023-04-15T06:28:52;18.33;;;13.10;;
12348;SDS011;5974;42.710;27.258;2023-04-15T06:31:19;21.50;;;12.47;;
12348;SDS011;5974;42.710;27.258;2023-04-15T06:33:46;18.57;;;14.37;;
12348;SDS011;5974;42.710;27.258;2023-04-15T06:36:15;24.37;;;16.47;;
12348;SDS011;5974;42.710;27.258;2023-04-15T06:38:42;18.63;;;11.63;;
12348;SDS011;5974;42.710;27.258;2023-04-15T06:41:09;19.90;;;11.20;;
12348;SDS011;5974;42.710;27.258;2023-04-15T06:43:36;12.17;;;7.80;;
12348;SDS011;5974;42.710;27.258;2023-04-15T06:46:02;14.60;;;8.40;;
12348;SDS011;5974;42.710;27.258;2023-04-15T06:48:30;12.97;;;9.13;;
12348;SDS011;5974;42.710;27.258;2023-04-15T06:50:57;13.37;;;7.80;;
12348;SDS011;5974;42.710;27.258;2023-04-15T06:53:25;11.67;;;7.40;;
12348;SDS011;5974;42.710;27.258;2023-04-15T06:55:52;13.87;;;7.30;;
12348;SDS011;5974;42.710;27.258;2023-04-15T06:58:19;10.63;;;7.60;;
12348;SDS011;5974;42.710;27.258;2023-04-15T07:00:46;8.77;;;5.80;;
12348;SDS011;5974;42.710;27.258;2023-04-15T07:03:13;11.73;;;6.03;;
12348;SDS011;5974;42.710;27.258;2023-04-15T07:05:40;9.90;;;4.90;;
12348;SDS011;5974;42.710;27.258;2023-04-15T07:08:07;8.83;;;4.73;;
12348;SDS011;5974;42.710;27.258;2023-04-15T07:10:35;6.70;;;5.00;;
12348;SDS011;5974;42.710;27.258;2023-04-15T07:13:02;10.57;;;6.33;;
12348;SDS011;5974;42.710;27.258;2023-04-15T07:15:29;17.93;;;7.00;;
12348;SDS011;5974;42.710;27.258;2023-04-15T07:17:56;12.60;;;6.97;;
12348;SDS011;5974;42.710;27.258;2023-04-15T07:20:23;13.20;;;9.20;;
12348;SDS011;5974;42.710;27.258;2023-04-15T07:22:50;18.10;;;12.93;;
12348;SDS011;5974;42.710;27.258;2023-04-15T07:25:17;14.47;;;10.20;;
12348;SDS011;5974;42.710;27.258;2023-04-15T07:27:45;13.43;;;11.77;;
12348;SDS011;5974;42.710;27.258;2023-04-15T07:30:12;10.07;;;6.83;;
12348;SDS011;5974;42.710;27.258;2023-04-15T07:32:40;7.47;;;6.00;;
12348;SDS011;5974;42.710;27.258;2023-04-15T07:35:08;7.07;;;4.03;;
12348;SDS011;5974;42.710;27.258;2023-04-15T07:37:35;5.17;;;4.57;;
12348;SDS011;5974;42.710;27.258;2023-04-15T07:40:02;9.43;;;5.90;;
12348;SDS011;5974;42.710;27.258;2023-04-15T07:42:31;8.40;;;6.50;;
12348;SDS011;5974;42.710;27.258;2023-04-15T07:45:00;10.70;;;7.60;;
12348;SDS011;5974;42.710;27.258;2023-04-15T07:47:27;9.17;;;6.07;;
12348;SDS011;5974;42.710;27.258;2023-04-15T07:49:54;9.43;;;6.40;;
12348;SDS011;5974;42.710;27.258;2023-04-15T07:52:20;8.07;;;5.27;;
12348;SDS011;5974;42.710;27.258;2023-04-15T07:54:47;9.27;;;6.90;;
12348;SDS011;5974;42.710;27.258;2023-04-15T07:57:14;19.30;;;15.50;;
12348;SDS011;5974;42.710;27.258;2023-04-15T07:59:42;8.90;;;5.70;;
12348;SDS011;5974;42.710;27.258;2023-04-15T08:02:11;4.70;;;3.70;;
12348;SDS011;5974;42.710;27.258;2023-04-15T08:04:38;6.70;;;3.40;;
12348;SDS011;5974;42.710;27.258;2023-04-15T08:07:05;8.33;;;3.97;;
12348;SDS011;5974;42.710;27.258;2023-04-15T08:09:32;4.63;;;4.17;;
12348;SDS011;5974;42.710;27.258;2023-04-15T08:11:58;7.33;;;4.53;;
12348;SDS011;5974;42.710;27.258;2023-04-15T08:14:25;6.27;;;3.60;;
12348;SDS011;5974;42.710;27.258;2023-04-15T08:16:52;6.40;;;3.97;;
12348;SDS011;5974;42.710;27.258;2023-04-15T08:19:20;6.73;;;3.60;;
12348;SDS011;5974;42.710;27.258;2023-04-15T08:21:48;5.00;;;2.83;;
12348;SDS011;5974;42.710;27.258;2023-04-15T08:24:15;6.77;;;3.83;;
12348;SDS011;5974;42.710;27.258;2023-04-15T08:26:42;9.97;;;7.20;;
12348;SDS011;5974;42.710;27.258;2023-04-15T08:29:09;4.00;;;3.60;;
12348;SDS011;5974;42.710;27.258;2023-04-15T08:31:35;10.10;;;7.07;;
12348;SDS011;5974;42.710;27.258;2023-04-15T08:34:02;5.20;;;3.10;;
12348;SDS011;5974;42.710;27.258;2023-04-15T08:36:31;6.07;;;4.60;;
12348;SDS011;5974;42.710;27.258;2023-04-15T08:38:57;5.17;;;2.90;;
12348;SDS011;5974;42.710;27.258;2023-04-15T08:41:25;9.30;;;6.23;;
12348;SDS011;5974;42.710;27.258;2023-04-15T08:44:00;7.83;;;4.80;;
12348;SDS011;5974;42.710;27.258;2023-04-15T08:46:29;7.00;;;4.30;;
12348;SDS011;5974;42.710;27.258;2023-04-15T08:48:58;4.70;;;3.63;;
12348;SDS011;5974;42.710;27.258;2023-04-15T08:51:28;7.57;;;4.07;;
12348;SDS011;5974;42.710;27.258;2023-04-15T08:53:57;6.03;;;3.87;;
12348;SDS011;5974;42.710;27.258;2023-04-15T08:56:26;5.33;;;3.70;;
12348;SDS011;5974;42.710;27.258;2023-04-15T08:58:56;7.50;;;5.00;;
12348;SDS011;5974;42.710;27.258;2023-04-15T09:01:23;8.67;;;5.90;;
12348;SDS011;5974;42.710;27.258;2023-04-15T09:03:51;5.47;;;3.97;;
12348;SDS011;5974;42.710;27.258;2023-04-15T09:06:19;5.10;;;2.37;;
12348;SDS011;5974;42.710;27.258;2023-04-15T09:08:48;5.00;;;2.60;;
12348;SDS011;5974;42.710;27.258;2023-04-15T09:11:15;5.90;;;4.13;;
12348;SDS011;5974;42.710;27.258;2023-04-15T09:13:43;5.43;;;2.50;;
12348;SDS011;5974;42.710;27.258;2023-04-15T09:16:10;4.63;;;2.80;;
12348;SDS011;5974;42.710;27.258;2023-04-15T09:18:37;4.70;;;2.60;;
12348;SDS011;5974;42.710;27.258;2023-04-15T09:21:05;4.70;;;3.23;;
12348;SDS011;5974;42.710;27.258;2023-04-15T09:23:33;6.10;;;3.23;;
12348;SDS011;5974;42.710;27.258;2023-04-15T09:26:02;6.37;;;3.43;;
12348;SDS011;5974;42.710;27.258;2023-04-15T09:28:29;5.47;;;2.53;;
12348;SDS011;5974;42.710;27.258;2023-04-15T09:30:57;4.00;;;2.60;;
12348;SDS011;5974;42.710;27.258;2023-04-15T09:33:25;5.00;;;3.17;;
12348;SDS011;5974;42.710;27.258;2023-04-15T09:35:57;2.43;;;2.23;;
12348;SDS011;5974;42.710;27.258;2023-04-15T09:38:25;3.30;;;2.30;;
12348;SDS011;5974;42.710;27.258;2023-04-15T09:40:53;5.20;;;2.60;;
12348;SDS011;5974;42.710;27.258;2023-04-15T09:43:21;3.63;;;2.07;;
12348;SDS011;5974;42.710;27.258;2023-04-15T09:45:51;2.57;;;2.33;;
12348;SDS011;5974;42.710;27.258;2023-04-15T09:48:19;2.10;;;1.80;;
12348;SDS011;5974;42.710;27.258;2023-04-15T09:50:47;3.40;;;2.00;;
12348;SDS011;5974;42.710;27.258;2023-04-15T09:53:18;2.17;;;1.50;;
12348;SDS011;5974;42.710;27.258;2023-04-15T09:55:48;4.07;;;1.87;;
12348;SDS011;5974;42.710;27.258;2023-04-15T09:58:20;3.00;;;1.70;;
12348;SDS011;5974;42.710;27.258;2023-04-15T10:00:50;4.37;;;2.00;;
12348;SDS011;5974;42.710;27.258;2023-04-15T10:03:20;2.77;;;2.20;;
12348;SDS011;5974;42.710;27.258;2023-04-15T10:05:48;4.10;;;1.90;;
12348;SDS011;5974;42.710;27.258;2023-04-15T10:08:17;5.20;;;2.10;;
12348;SDS011;5974;42.710;27.258;2023-04-15T10:10:46;2.90;;;1.80;;
12348;SDS011;5974;42.710;27.258;2023-04-15T10:13:15;2.77;;;1.63;;
12348;SDS011;5974;42.710;27.258;2023-04-15T10:15:47;2.93;;;1.77;;
12348;SDS011;5974;42.710;27.258;2023-04-15T10:18:18;6.00;;;2.60;;
12348;SDS011;5974;42.710;27.258;2023-04-15T10:20:47;4.27;;;2.40;;
12348;SDS011;5974;42.710;27.258;2023-04-15T10:23:14;4.13;;;1.80;;
12348;SDS011;5974;42.710;27.258;2023-04-15T10:25:41;7.33;;;1.80;;
12348;SDS011;5974;42.710;27.258;2023-04-15T10:28:09;3.77;;;1.73;;
12348;SDS011;5974;42.710;27.258;2023-04-15T10:30:36;3.23;;;1.53;;
12348;SDS011;5974;42.710;27.258;2023-04-15T10:33:05;8.80;;;2.00;;
12348;SDS011;5974;42.710;27.258;2023-04-15T10:35:34;3.40;;;1.60;;
12348;SDS011;5974;42.710;27.258;2023-04-15T10:38:14;3.07;;;1.60;;
12348;SDS011;5974;42.710;27.258;2023-04-15T10:41:06;1.77;;;1.27;;
12348;SDS011;5974;42.710;27.258;2023-04-15T10:43:38;4.33;;;2.40;;
12348;SDS011;5974;42.710;27.258;2023-04-15T10:46:05;2.93;;;2.07;;
12348;SDS011;5974;42.710;27.258;2023-04-15T10:48:33;3.47;;;1.93;;
12348;SDS011;5974;42.710;27.258;2023-04-15T10:51:00;4.40;;;2.10;;
12348;SDS011;5974;42.710;27.258;2023-04-15T10:53:27;2.93;;;1.77;;
12348;SDS011;5974;42.710;27.258;2023-04-15T10:55:56;4.73;;;2.40;;
12348;SDS011;5974;42.710;27.258;2023-04-15T10:58:23;4.80;;;2.47;;
12348;SDS011;5974;42.710;27.258;2023-04-15T11:00:52;4.23;;;1.93;;
12348;SDS011;5974;42.710;27.258;2023-04-15T11:03:35;1.93;;;1.40;;
12348;SDS011;5974;42.710;27.258;2023-04-15T11:06:03;3.90;;;2.00;;
12348;SDS011;5974;42.710;27.258;2023-04-15T11:11:21;3.30;;;1.40;;
12348;SDS011;5974;42.710;27.258;2023-04-15T11:13:48;7.13;;;3.37;;
12348;SDS011;5974;42.710;27.258;2023-04-15T11:16:16;4.87;;;2.60;;
12348;SDS011;5974;42.710;27.258;2023-04-15T11:18:53;3.23;;;2.70;;
12348;SDS011;5974;42.710;27.258;2023-04-15T11:21:23;3.27;;;1.97;;
12348;SDS011;5974;42.710;27.258;2023-04-15T11:23:52;3.30;;;1.70;;
12348;SDS011;5974;42.710;27.258;2023-04-15T11:26:19;4.70;;;1.57;;
12348;SDS011;5974;42.710;27.258;2023-04-15T11:28:52;2.10;;;1.40;;
12348;SDS011;5974;42.710;27.258;2023-04-15T11:31:19;3.30;;;1.70;;
12348;SDS011;5974;42.710;27.258;2023-04-15T11:33:54;3.40;;;1.80;;
12348;SDS011;5974;42.710;27.258;2023-04-15T11:36:25;5.20;;;1.90;;
12348;SDS011;5974;42.710;27.258;2023-04-15T11:38:53;6.10;;;2.17;;
12348;SDS011;5974;42.710;27.258;2023-04-15T11:41:20;2.20;;;1.87;;
12348;SDS011;5974;42.710;27.258;2023-04-15T11:43:48;3.33;;;1.50;;
12348;SDS011;5974;42.710;27.258;2023-04-15T11:46:15;3.30;;;1.40;;
12348;SDS011;5974;42.710;27.258;2023-04-15T11:48:43;2.33;;;1.30;;
12348;SDS011;5974;42.710;27.258;2023-04-15T11:51:12;4.00;;;2.07;;
12348;SDS011;5974;42.710;27.258;2023-04-15T11:53:40;2.80;;;2.20;;
12348;SDS011;5974;42.710;27.258;2023-04-15T11:56:10;2.27;;;2.00;;
12348;SDS011;5974;42.710;27.258;2023-04-15T11:58:42;7.23;;;3.20;;
12348;SDS011;5974;42.710;27.258;2023-04-15T12:01:10;5.03;;;4.23;;
12348;SDS011;5974;42.710;27.258;2023-04-15T12:03:38;2.97;;;2.00;;
12348;SDS011;5974;42.710;27.258;2023-04-15T12:06:10;2.80;;;1.83;;
12348;SDS011;5974;42.710;27.258;2023-04-15T12:08:50;3.87;;;2.13;;
12348;SDS011;5974;42.710;27.258;2023-04-15T12:11:28;3.67;;;1.90;;
12348;SDS011;5974;42.710;27.258;2023-04-15T12:14:20;5.27;;;2.80;;
12348;SDS011;5974;42.710;27.258;2023-04-15T12:16:50;2.67;;;1.80;;
12348;SDS011;5974;42.710;27.258;2023-04-15T12:19:22;4.63;;;1.80;;
12348;SDS011;5974;42.710;27.258;2023-04-15T12:21:52;3.63;;;1.53;;
12348;SDS011;5974;42.710;27.258;2023-04-15T12:24:22;5.60;;;2.13;;
12348;SDS011;5974;42.710;27.258;2023-04-15T12:26:50;4.13;;;2.03;;
12348;SDS011;5974;42.710;27.258;2023-04-15T12:29:19;2.07;;;1.50;;
12348;SDS011;5974;42.710;27.258;2023-04-15T12:31:47;2.63;;;1.77;;
12348;SDS011;5974;42.710;27.258;2023-04-15T12:34:16;3.70;;;1.63;;
12348;SDS011;5974;42.710;27.258;2023-04-15T12:36:44;2.80;;;2.43;;
12348;SDS011;5974;42.710;27.258;2023-04-15T12:39:12;5.57;;;2.20;;
12348;SDS011;5974;42.710;27.258;2023-04-15T12:41:39;3.67;;;1.87;;
12348;SDS011;5974;42.710;27.258;2023-04-15T12:44:06;2.80;;;1.70;;
12348;SDS011;5974;42.710;27.258;2023-04-15T12:46:33;5.20;;;2.03;;
12348;SDS011;5974;42.710;27.258;2023-04-15T12:49:00;3.43;;;1.80;;
12348;SDS011;5974;42.710;27.258;2023-04-15T12:51:27;4.70;;;1.73;;
12348;SDS011;5974;42.710;27.258;2023-04-15T12:53:56;5.80;;;2.50;;
12348;SDS011;5974;42.710;27.258;2023-04-15T12:56:24;3.57;;;1.83;;
12348;SDS011;5974;42.710;27.258;2023-04-15T12:58:51;3.47;;;1.97;;
12348;SDS011;5974;42.710;27.258;2023-04-15T13:01:18;2.97;;;1.60;;
12348;SDS011;5974;42.710;27.258;2023-04-15T13:03:45;4.90;;;2.40;;
12348;SDS011;5974;42.710;27.258;2023-04-15T13:06:12;4.93;;;2.50;;
12348;SDS011;5974;42.710;27.258;2023-04-15T13:08:39;7.27;;;3.43;;
12348;SDS011;5974;42.710;27.258;2023-04-15T13:11:06;4.83;;;2.80;;
12348;SDS011;5974;42.710;27.258;2023-04-15T13:13:34;5.00;;;1.80;;
12348;SDS011;5974;42.710;27.258;2023-04-15T13:16:01;5.13;;;2.10;;
12348;SDS011;5974;42.710;27.258;2023-04-15T13:18:28;8.50;;;3.07;;
12348;SDS011;5974;42.710;27.258;2023-04-15T13:20:55;3.90;;;1.97;;
12348;SDS011;5974;42.710;27.258;2023-04-15T13:23:22;5.30;;;2.00;;
12348;SDS011;5974;42.710;27.258;2023-04-15T13:25:49;5.53;;;1.80;;
12348;SDS011;5974;42.710;27.258;2023-04-15T13:28:16;4.13;;;1.80;;
12348;SDS011;5974;42.710;27.258;2023-04-15T13:30:44;3.50;;;1.80;;
12348;SDS011;5974;42.710;27.258;2023-04-15T13:33:12;5.07;;;1.83;;
12348;SDS011;5974;42.710;27.258;2023-04-15T13:35:39;3.53;;;1.83;;
12348;SDS011;5974;42.710;27.258;2023-04-15T13:38:06;4.83;;;2.30;;
12348;SDS011;5974;42.710;27.258;2023-04-15T13:40:33;4.60;;;2.20;;
12348;SDS011;5974;42.710;27.258;2023-04-15T13:43:00;3.43;;;1.90;;
12348;SDS011;5974;42.710;27.258;2023-04-15T13:45:27;8.23;;;1.93;;
12348;SDS011;5974;42.710;27.258;2023-04-15T13:47:55;5.33;;;2.20;;
12348;SDS011;5974;42.710;27.258;2023-04-15T13:50:22;4.70;;;2.37;;
12348;SDS011;5974;42.710;27.258;2023-04-15T13:52:49;5.70;;;2.10;;
12348;SDS011;5974;42.710;27.258;2023-04-15T13:55:16;7.70;;;1.90;;
12348;SDS011;5974;42.710;27.258;2023-04-15T13:57:43;7.80;;;2.30;;
12348;SDS011;5974;42.710;27.258;2023-04-15T14:00:10;4.63;;;1.80;;
12348;SDS011;5974;42.710;27.258;2023-04-15T14:02:38;5.07;;;1.93;;
12348;SDS011;5974;42.710;27.258;2023-04-15T14:05:07;6.30;;;2.10;;
12348;SDS011;5974;42.710;27.258;2023-04-15T14:07:34;5.83;;;2.30;;
12348;SDS011;5974;42.710;27.258;2023-04-15T14:10:01;3.47;;;1.70;;
12348;SDS011;5974;42.710;27.258;2023-04-15T14:12:29;3.77;;;2.20;;
12348;SDS011;5974;42.710;27.258;2023-04-15T14:14:56;5.03;;;2.20;;
12348;SDS011;5974;42.710;27.258;2023-04-15T14:17:22;5.80;;;2.20;;
12348;SDS011;5974;42.710;27.258;2023-04-15T14:19:50;5.83;;;2.90;;
12348;SDS011;5974;42.710;27.258;2023-04-15T14:22:18;8.77;;;2.10;;
12348;SDS011;5974;42.710;27.258;2023-04-15T14:24:45;6.13;;;2.27;;
12348;SDS011;5974;42.710;27.258;2023-04-15T14:27:13;5.50;;;2.50;;
12348;SDS011;5974;42.710;27.258;2023-04-15T14:29:40;5.63;;;2.60;;
12348;SDS011;5974;42.710;27.258;2023-04-15T14:32:07;4.50;;;2.00;;
12348;SDS011;5974;42.710;27.258;2023-04-15T14:34:34;5.10;;;2.47;;
12348;SDS011;5974;42.710;27.258;2023-04-15T14:37:01;4.20;;;2.20;;
12348;SDS011;5974;42.710;27.258;2023-04-15T14:39:30;6.87;;;2.43;;
12348;SDS011;5974;42.710;27.258;2023-04-15T14:41:57;7.20;;;2.77;;
12348;SDS011;5974;42.710;27.258;2023-04-15T14:44:24;6.93;;;3.13;;
12348;SDS011;5974;42.710;27.258;2023-04-15T14:46:51;4.17;;;2.77;;
12348;SDS011;5974;42.710;27.258;2023-04-15T14:49:18;6.77;;;2.80;;